sensor_id;sensor_type;location;lat;lon;timestamp;temperature;humidity
17236;DHT22;8734;59.272;17.780;2023-12-20T00:02:25;1.00;99.90
17236;DHT22;8734;59.272;17.780;2023-12-20T00:04:53;1.10;99.90
17236;DHT22;8734;59.272;17.780;2023-12-20T00:07:22;1.00;99.90
17236;DHT22;8734;59.272;17.780;2023-12-20T00:09:50;1.00;99.90
17236;DHT22;8734;59.272;17.780;2023-12-20T00:12:18;1.00;99.90
17236;DHT22;8734;59.272;17.780;2023-12-20T00:14:46;1.10;99.90
17236;DHT22;8734;59.272;17.780;2023-12-20T00:17:16;1.10;99.90
17236;DHT22;8734;59.272;17.780;2023-12-20T00:19:44;1.00;99.90
17236;DHT22;8734;59.272;17.780;2023-12-20T00:22:13;1.00;99.90
17236;DHT22;8734;59.272;17.780;2023-12-20T00:24:41;1.00;99.90
17236;DHT22;8734;59.272;17.780;2023-12-20T00:27:10;1.00;99.90
17236;DHT22;8734;59.272;17.780;2023-12-20T00:29:39;1.00;99.90
17236;DHT22;8734;59.272;17.780;2023-12-20T00:32:07;0.90;99.90
17236;DHT22;8734;59.272;17.780;2023-12-20T00:34:36;0.90;99.90
17236;DHT22;8734;59.272;17.780;2023-12-20T00:37:04;0.80;99.90
17236;DHT22;8734;59.272;17.780;2023-12-20T00:39:33;0.80;99.90
17236;DHT22;8734;59.272;17.780;2023-12-20T00:42:01;0.80;99.90
17236;DHT22;8734;59.272;17.780;2023-12-20T00:44:29;0.80;99.90
17236;DHT22;8734;59.272;17.780;2023-12-20T00:46:57;0.70;99.90
17236;DHT22;8734;59.272;17.780;2023-12-20T00:49:26;0.70;99.90
17236;DHT22;8734;59.272;17.780;2023-12-20T00:51:56;0.60;99.90
17236;DHT22;8734;59.272;17.780;2023-12-20T00:54:24;0.50;99.90
17236;DHT22;8734;59.272;17.780;2023-12-20T00:56:52;0.50;99.90
17236;DHT22;8734;59.272;17.780;2023-12-20T00:59:20;0.50;99.90
17236;DHT22;8734;59.272;17.780;2023-12-20T01:01:48;0.50;99.90
17236;DHT22;8734;59.272;17.780;2023-12-20T01:04:18;0.50;99.90
17236;DHT22;8734;59.272;17.780;2023-12-20T01:06:46;0.40;99.90
17236;DHT22;8734;59.272;17.780;2023-12-20T01:09:16;0.40;99.90
17236;DHT22;8734;59.272;17.780;2023-12-20T01:11:45;0.40;99.90
17236;DHT22;8734;59.272;17.780;2023-12-20T01:14:13;0.30;99.90
17236;DHT22;8734;59.272;17.780;2023-12-20T01:16:41;0.30;99.90
17236;DHT22;8734;59.272;17.780;2023-12-20T01:19:10;0.30;99.90
17236;DHT22;8734;59.272;17.780;2023-12-20T01:21:38;0.40;99.90
17236;DHT22;8734;59.272;17.780;2023-12-20T01:24:06;0.40;99.90
17236;DHT22;8734;59.272;17.780;2023-12-20T01:26:36;0.30;99.90
17236;DHT22;8734;59.272;17.780;2023-12-20T01:29:04;0.40;99.90
17236;DHT22;8734;59.272;17.780;2023-12-20T01:31:32;0.40;99.90
17236;DHT22;8734;59.272;17.780;2023-12-20T01:34:00;0.40;99.90
17236;DHT22;8734;59.272;17.780;2023-12-20T01:36:28;0.40;99.90
17236;DHT22;8734;59.272;17.780;2023-12-20T01:38:57;0.40;99.90
17236;DHT22;8734;59.272;17.780;2023-12-20T01:41:25;0.50;99.90
17236;DHT22;8734;59.272;17.780;2023-12-20T01:43:55;0.60;99.90
17236;DHT22;8734;59.272;17.780;2023-12-20T01:46:23;0.60;99.90
17236;DHT22;8734;59.272;17.780;2023-12-20T01:48:52;0.70;99.90
17236;DHT22;8734;59.272;17.780;2023-12-20T01:51:21;0.70;99.90
17236;DHT22;8734;59.272;17.780;2023-12-20T01:53:50;0.70;99.90
17236;DHT22;8734;59.272;17.780;2023-12-20T01:56:18;0.70;99.90
17236;DHT22;8734;59.272;17.780;2023-12-20T01:58:47;0.60;99.90
17236;DHT22;8734;59.272;17.780;2023-12-20T02:01:17;0.60;99.90
17236;DHT22;8734;59.272;17.780;2023-12-20T02:03:46;0.50;99.90
17236;DHT22;8734;59.272;17.780;2023-12-20T02:06:16;0.50;99.90
17236;DHT22;8734;59.272;17.780;2023-12-20T02:08:46;0.40;99.90
17236;DHT22;8734;59.272;17.780;2023-12-20T02:11:14;0.40;99.90
17236;DHT22;8734;59.272;17.780;2023-12-20T02:13:42;0.30;99.90
17236;DHT22;8734;59.272;17.780;2023-12-20T02:16:10;0.30;99.90
17236;DHT22;8734;59.272;17.780;2023-12-20T02:18:40;0.30;99.90
17236;DHT22;8734;59.272;17.780;2023-12-20T02:21:10;0.40;99.90
17236;DHT22;8734;59.272;17.780;2023-12-20T02:23:40;0.40;99.90
17236;DHT22;8734;59.272;17.780;2023-12-20T02:26:08;0.30;99.90
17236;DHT22;8734;59.272;17.780;2023-12-20T02:28:37;0.30;99.90
17236;DHT22;8734;59.272;17.780;2023-12-20T02:31:06;0.30;99.90
17236;DHT22;8734;59.272;17.780;2023-12-20T02:33:34;0.30;99.90
17236;DHT22;8734;59.272;17.780;2023-12-20T02:36:03;0.30;99.90
17236;DHT22;8734;59.272;17.780;2023-12-20T02:38:31;0.30;99.90
17236;DHT22;8734;59.272;17.780;2023-12-20T02:41:02;0.40;99.90
17236;DHT22;8734;59.272;17.780;2023-12-20T02:43:30;0.40;99.90
17236;DHT22;8734;59.272;17.780;2023-12-20T02:45:59;0.40;99.90
17236;DHT22;8734;59.272;17.780;2023-12-20T02:48:27;0.50;99.90
17236;DHT22;8734;59.272;17.780;2023-12-20T02:50:55;0.60;99.90
17236;DHT22;8734;59.272;17.780;2023-12-20T02:53:23;0.60;99.90
17236;DHT22;8734;59.272;17.780;2023-12-20T02:55:52;0.60;99.90
17236;DHT22;8734;59.272;17.780;2023-12-20T02:58:21;0.60;99.90
17236;DHT22;8734;59.272;17.780;2023-12-20T03:00:49;0.60;99.90
17236;DHT22;8734;59.272;17.780;2023-12-20T03:03:18;0.60;99.90
17236;DHT22;8734;59.272;17.780;2023-12-20T03:05:47;0.70;99.90
17236;DHT22;8734;59.272;17.780;2023-12-20T03:08:15;0.70;99.90
17236;DHT22;8734;59.272;17.780;2023-12-20T03:10:43;0.70;99.90
17236;DHT22;8734;59.272;17.780;2023-12-20T03:13:12;0.70;99.90
17236;DHT22;8734;59.272;17.780;2023-12-20T03:15:41;0.70;99.90
17236;DHT22;8734;59.272;17.780;2023-12-20T03:18:10;0.70;99.90
17236;DHT22;8734;59.272;17.780;2023-12-20T03:20:38;0.80;99.90
17236;DHT22;8734;59.272;17.780;2023-12-20T03:23:08;0.80;99.90
17236;DHT22;8734;59.272;17.780;2023-12-20T03:25:36;0.80;99.90
17236;DHT22;8734;59.272;17.780;2023-12-20T03:28:05;0.80;99.90
17236;DHT22;8734;59.272;17.780;2023-12-20T03:30:33;0.90;99.90
17236;DHT22;8734;59.272;17.780;2023-12-20T03:33:03;0.90;99.90
17236;DHT22;8734;59.272;17.780;2023-12-20T03:35:31;0.90;99.90
17236;DHT22;8734;59.272;17.780;2023-12-20T03:38:00;0.90;99.90
17236;DHT22;8734;59.272;17.780;2023-12-20T03:40:28;0.90;99.90
17236;DHT22;8734;59.272;17.780;2023-12-20T03:42:56;0.90;99.90
17236;DHT22;8734;59.272;17.780;2023-12-20T03:45:24;0.90;99.90
17236;DHT22;8734;59.272;17.780;2023-12-20T03:47:53;0.90;99.90
17236;DHT22;8734;59.272;17.780;2023-12-20T03:50:24;0.90;99.90
17236;DHT22;8734;59.272;17.780;2023-12-20T03:52:53;0.90;99.90
17236;DHT22;8734;59.272;17.780;2023-12-20T03:55:21;0.90;99.90
17236;DHT22;8734;59.272;17.780;2023-12-20T03:57:49;0.90;99.90
17236;DHT22;8734;59.272;17.780;2023-12-20T04:00:18;0.90;99.90
17236;DHT22;8734;59.272;17.780;2023-12-20T04:02:46;0.90;99.90
17236;DHT22;8734;59.272;17.780;2023-12-20T04:05:14;0.90;99.90
17236;DHT22;8734;59.272;17.780;2023-12-20T04:07:44;0.90;99.90
17236;DHT22;8734;59.272;17.780;2023-12-20T04:10:12;1.00;99.90
17236;DHT22;8734;59.272;17.780;2023-12-20T04:12:41;1.00;99.90
17236;DHT22;8734;59.272;17.780;2023-12-20T04:15:09;1.00;99.90
17236;DHT22;8734;59.272;17.780;2023-12-20T04:17:38;1.00;99.90
17236;DHT22;8734;59.272;17.780;2023-12-20T04:20:08;1.00;99.90
17236;DHT22;8734;59.272;17.780;2023-12-20T04:22:36;0.90;99.90
17236;DHT22;8734;59.272;17.780;2023-12-20T04:25:06;1.00;99.90
17236;DHT22;8734;59.272;17.780;2023-12-20T04:27:35;1.00;99.90
17236;DHT22;8734;59.272;17.780;2023-12-20T04:30:04;1.00;99.90
17236;DHT22;8734;59.272;17.780;2023-12-20T04:32:32;1.00;99.90
17236;DHT22;8734;59.272;17.780;2023-12-20T04:35:00;1.00;99.90
17236;DHT22;8734;59.272;17.780;2023-12-20T04:37:29;1.00;99.90
17236;DHT22;8734;59.272;17.780;2023-12-20T04:39:57;1.00;99.90
17236;DHT22;8734;59.272;17.780;2023-12-20T04:42:27;1.10;99.90
17236;DHT22;8734;59.272;17.780;2023-12-20T04:44:55;1.10;99.90
17236;DHT22;8734;59.272;17.780;2023-12-20T04:47:24;1.10;99.90
17236;DHT22;8734;59.272;17.780;2023-12-20T04:49:52;1.10;99.90
17236;DHT22;8734;59.272;17.780;2023-12-20T04:52:20;1.10;99.90
17236;DHT22;8734;59.272;17.780;2023-12-20T04:54:49;1.10;99.90
17236;DHT22;8734;59.272;17.780;2023-12-20T04:57:17;1.10;99.90
17236;DHT22;8734;59.272;17.780;2023-12-20T04:59:47;1.10;99.90
17236;DHT22;8734;59.272;17.780;2023-12-20T05:02:15;1.10;99.90
17236;DHT22;8734;59.272;17.780;2023-12-20T05:04:43;1.10;99.90
17236;DHT22;8734;59.272;17.780;2023-12-20T05:07:12;1.20;99.90
17236;DHT22;8734;59.272;17.780;2023-12-20T05:09:40;1.20;99.90
17236;DHT22;8734;59.272;17.780;2023-12-20T05:12:08;1.20;99.90
17236;DHT22;8734;59.272;17.780;2023-12-20T05:14:36;1.20;99.90
17236;DHT22;8734;59.272;17.780;2023-12-20T05:17:06;1.20;99.90
17236;DHT22;8734;59.272;17.780;2023-12-20T05:19:34;1.20;99.90
17236;DHT22;8734;59.272;17.780;2023-12-20T05:22:03;1.20;99.90
17236;DHT22;8734;59.272;17.780;2023-12-20T05:24:31;1.20;99.90
17236;DHT22;8734;59.272;17.780;2023-12-20T05:26:59;1.10;99.90
17236;DHT22;8734;59.272;17.780;2023-12-20T05:29:28;1.20;99.90
17236;DHT22;8734;59.272;17.780;2023-12-20T05:31:58;1.20;99.90
17236;DHT22;8734;59.272;17.780;2023-12-20T05:34:28;1.20;99.90
17236;DHT22;8734;59.272;17.780;2023-12-20T05:36:57;1.20;99.90
17236;DHT22;8734;59.272;17.780;2023-12-20T05:39:26;1.20;99.90
17236;DHT22;8734;59.272;17.780;2023-12-20T05:41:54;1.30;99.90
17236;DHT22;8734;59.272;17.780;2023-12-20T05:44:22;1.20;99.90
17236;DHT22;8734;59.272;17.780;2023-12-20T05:46:50;1.20;99.90
17236;DHT22;8734;59.272;17.780;2023-12-20T05:49:18;1.20;99.90
17236;DHT22;8734;59.272;17.780;2023-12-20T05:51:48;1.20;99.90
17236;DHT22;8734;59.272;17.780;2023-12-20T05:54:16;1.20;99.90
17236;DHT22;8734;59.272;17.780;2023-12-20T05:56:45;1.20;99.90
17236;DHT22;8734;59.272;17.780;2023-12-20T05:59:13;1.20;99.90
17236;DHT22;8734;59.272;17.780;2023-12-20T06:01:41;1.20;99.90
17236;DHT22;8734;59.272;17.780;2023-12-20T06:04:09;1.30;99.90
17236;DHT22;8734;59.272;17.780;2023-12-20T06:06:41;1.20;99.90
17236;DHT22;8734;59.272;17.780;2023-12-20T06:09:11;1.20;99.90
17236;DHT22;8734;59.272;17.780;2023-12-20T06:11:39;1.20;99.90
17236;DHT22;8734;59.272;17.780;2023-12-20T06:14:07;1.20;99.90
17236;DHT22;8734;59.272;17.780;2023-12-20T06:16:35;1.20;99.90
17236;DHT22;8734;59.272;17.780;2023-12-20T06:19:04;1.20;99.90
17236;DHT22;8734;59.272;17.780;2023-12-20T06:21:32;1.20;99.90
17236;DHT22;8734;59.272;17.780;2023-12-20T06:24:00;1.20;99.90
17236;DHT22;8734;59.272;17.780;2023-12-20T06:26:30;1.20;99.90
17236;DHT22;8734;59.272;17.780;2023-12-20T06:28:58;1.20;99.90
17236;DHT22;8734;59.272;17.780;2023-12-20T06:31:26;1.20;99.90
17236;DHT22;8734;59.272;17.780;2023-12-20T06:33:54;1.10;99.90
17236;DHT22;8734;59.272;17.780;2023-12-20T06:36:24;1.20;99.90
17236;DHT22;8734;59.272;17.780;2023-12-20T06:38:55;1.10;99.90
17236;DHT22;8734;59.272;17.780;2023-12-20T06:41:23;1.10;99.90
17236;DHT22;8734;59.272;17.780;2023-12-20T06:43:53;1.00;99.90
17236;DHT22;8734;59.272;17.780;2023-12-20T06:46:22;1.00;99.90
17236;DHT22;8734;59.272;17.780;2023-12-20T06:48:50;1.10;99.90
17236;DHT22;8734;59.272;17.780;2023-12-20T06:51:18;1.20;99.90
17236;DHT22;8734;59.272;17.780;2023-12-20T06:53:47;1.30;99.90
17236;DHT22;8734;59.272;17.780;2023-12-20T06:56:15;1.30;99.90
17236;DHT22;8734;59.272;17.780;2023-12-20T06:58:45;1.30;99.90
17236;DHT22;8734;59.272;17.780;2023-12-20T07:01:16;1.30;99.90
17236;DHT22;8734;59.272;17.780;2023-12-20T07:03:44;1.20;99.90
17236;DHT22;8734;59.272;17.780;2023-12-20T07:06:13;1.20;99.90
17236;DHT22;8734;59.272;17.780;2023-12-20T07:08:43;1.20;99.90
17236;DHT22;8734;59.272;17.780;2023-12-20T07:11:12;1.20;99.90
17236;DHT22;8734;59.272;17.780;2023-12-20T07:13:40;1.20;99.90
17236;DHT22;8734;59.272;17.780;2023-12-20T07:16:09;1.20;99.90
17236;DHT22;8734;59.272;17.780;2023-12-20T07:18:38;1.20;99.90
17236;DHT22;8734;59.272;17.780;2023-12-20T07:21:06;1.20;99.90
17236;DHT22;8734;59.272;17.780;2023-12-20T07:23:35;1.10;99.90
17236;DHT22;8734;59.272;17.780;2023-12-20T07:26:03;1.10;99.90
17236;DHT22;8734;59.272;17.780;2023-12-20T07:28:32;1.10;99.90
17236;DHT22;8734;59.272;17.780;2023-12-20T07:31:00;1.10;99.90
17236;DHT22;8734;59.272;17.780;2023-12-20T07:33:29;1.20;99.90
17236;DHT22;8734;59.272;17.780;2023-12-20T07:36:07;1.30;99.90
17236;DHT22;8734;59.272;17.780;2023-12-20T07:38:35;1.20;99.90
17236;DHT22;8734;59.272;17.780;2023-12-20T07:41:04;1.20;99.90
17236;DHT22;8734;59.272;17.780;2023-12-20T07:43:32;1.20;99.90
17236;DHT22;8734;59.272;17.780;2023-12-20T07:46:04;1.20;99.90
17236;DHT22;8734;59.272;17.780;2023-12-20T07:48:34;1.20;99.90
17236;DHT22;8734;59.272;17.780;2023-12-20T07:51:03;1.10;99.90
17236;DHT22;8734;59.272;17.780;2023-12-20T07:53:34;1.10;99.90
17236;DHT22;8734;59.272;17.780;2023-12-20T07:56:12;1.10;99.90
17236;DHT22;8734;59.272;17.780;2023-12-20T07:58:41;1.10;99.90
17236;DHT22;8734;59.272;17.780;2023-12-20T08:01:19;1.10;99.90
17236;DHT22;8734;59.272;17.780;2023-12-20T08:03:48;1.10;99.90
17236;DHT22;8734;59.272;17.780;2023-12-20T08:06:17;1.10;99.90
17236;DHT22;8734;59.272;17.780;2023-12-20T08:08:47;1.10;99.90
17236;DHT22;8734;59.272;17.780;2023-12-20T08:11:27;1.20;99.90
17236;DHT22;8734;59.272;17.780;2023-12-20T08:13:56;1.30;99.90
17236;DHT22;8734;59.272;17.780;2023-12-20T08:16:25;1.20;99.90
17236;DHT22;8734;59.272;17.780;2023-12-20T08:18:53;1.30;99.90
17236;DHT22;8734;59.272;17.780;2023-12-20T08:21:22;1.30;99.90
17236;DHT22;8734;59.272;17.780;2023-12-20T08:23:51;1.30;99.90
17236;DHT22;8734;59.272;17.780;2023-12-20T08:26:19;1.40;99.90
17236;DHT22;8734;59.272;17.780;2023-12-20T08:28:49;1.40;99.90
17236;DHT22;8734;59.272;17.780;2023-12-20T08:31:18;1.30;99.90
17236;DHT22;8734;59.272;17.780;2023-12-20T08:33:48;1.30;99.90
17236;DHT22;8734;59.272;17.780;2023-12-20T08:36:17;1.30;99.90
17236;DHT22;8734;59.272;17.780;2023-12-20T08:38:45;1.40;99.90
17236;DHT22;8734;59.272;17.780;2023-12-20T08:41:15;1.40;99.90
17236;DHT22;8734;59.272;17.780;2023-12-20T08:43:44;1.40;99.90
17236;DHT22;8734;59.272;17.780;2023-12-20T08:46:13;1.40;99.90
17236;DHT22;8734;59.272;17.780;2023-12-20T08:48:41;1.40;99.90
17236;DHT22;8734;59.272;17.780;2023-12-20T08:51:11;1.40;99.90
17236;DHT22;8734;59.272;17.780;2023-12-20T08:53:39;1.40;99.90
17236;DHT22;8734;59.272;17.780;2023-12-20T08:56:07;1.50;99.90
17236;DHT22;8734;59.272;17.780;2023-12-20T08:58:37;1.50;99.90
17236;DHT22;8734;59.272;17.780;2023-12-20T09:01:05;1.50;99.90
17236;DHT22;8734;59.272;17.780;2023-12-20T09:03:34;1.60;99.90
17236;DHT22;8734;59.272;17.780;2023-12-20T09:06:03;1.60;99.90
17236;DHT22;8734;59.272;17.780;2023-12-20T09:08:32;1.60;99.90
17236;DHT22;8734;59.272;17.780;2023-12-20T09:11:01;1.70;99.90
17236;DHT22;8734;59.272;17.780;2023-12-20T09:13:29;1.70;99.90
17236;DHT22;8734;59.272;17.780;2023-12-20T09:16:00;1.70;99.90
17236;DHT22;8734;59.272;17.780;2023-12-20T09:18:31;1.60;99.90
17236;DHT22;8734;59.272;17.780;2023-12-20T09:21:00;1.60;99.90
17236;DHT22;8734;59.272;17.780;2023-12-20T09:23:29;1.70;99.90
17236;DHT22;8734;59.272;17.780;2023-12-20T09:25:57;1.80;99.90
17236;DHT22;8734;59.272;17.780;2023-12-20T09:28:25;1.70;99.90
17236;DHT22;8734;59.272;17.780;2023-12-20T09:30:53;1.70;99.90
17236;DHT22;8734;59.272;17.780;2023-12-20T09:33:23;1.80;99.90
17236;DHT22;8734;59.272;17.780;2023-12-20T09:35:52;1.80;99.90
17236;DHT22;8734;59.272;17.780;2023-12-20T09:38:20;1.90;99.90
17236;DHT22;8734;59.272;17.780;2023-12-20T09:40:50;1.90;99.90
17236;DHT22;8734;59.272;17.780;2023-12-20T09:43:20;2.00;99.90
17236;DHT22;8734;59.272;17.780;2023-12-20T09:45:48;2.00;99.90
17236;DHT22;8734;59.272;17.780;2023-12-20T09:48:18;2.00;99.90
17236;DHT22;8734;59.272;17.780;2023-12-20T09:50:48;2.00;99.90
17236;DHT22;8734;59.272;17.780;2023-12-20T09:53:20;2.00;99.90
17236;DHT22;8734;59.272;17.780;2023-12-20T09:55:51;2.00;99.90
17236;DHT22;8734;59.272;17.780;2023-12-20T09:58:19;2.10;99.90
17236;DHT22;8734;59.272;17.780;2023-12-20T10:00:48;2.10;99.90
17236;DHT22;8734;59.272;17.780;2023-12-20T10:03:17;2.10;99.90
17236;DHT22;8734;59.272;17.780;2023-12-20T10:05:51;2.10;99.90
17236;DHT22;8734;59.272;17.780;2023-12-20T10:08:21;2.10;99.90
17236;DHT22;8734;59.272;17.780;2023-12-20T10:10:50;2.10;99.90
17236;DHT22;8734;59.272;17.780;2023-12-20T10:13:18;2.10;99.90
17236;DHT22;8734;59.272;17.780;2023-12-20T10:15:46;2.10;99.90
17236;DHT22;8734;59.272;17.780;2023-12-20T10:18:15;2.20;99.90
17236;DHT22;8734;59.272;17.780;2023-12-20T10:20:45;2.10;99.90
17236;DHT22;8734;59.272;17.780;2023-12-20T10:23:16;2.10;99.90
17236;DHT22;8734;59.272;17.780;2023-12-20T10:25:56;2.20;99.90
17236;DHT22;8734;59.272;17.780;2023-12-20T10:28:25;2.20;99.90
17236;DHT22;8734;59.272;17.780;2023-12-20T10:30:55;2.30;99.90
17236;DHT22;8734;59.272;17.780;2023-12-20T10:33:25;2.30;99.90
17236;DHT22;8734;59.272;17.780;2023-12-20T10:35:54;2.30;99.90
17236;DHT22;8734;59.272;17.780;2023-12-20T10:38:23;2.40;99.90
17236;DHT22;8734;59.272;17.780;2023-12-20T10:40:56;2.30;99.90
17236;DHT22;8734;59.272;17.780;2023-12-20T10:43:26;2.30;99.90
17236;DHT22;8734;59.272;17.780;2023-12-20T10:45:57;2.30;99.90
17236;DHT22;8734;59.272;17.780;2023-12-20T10:48:26;2.30;99.90
17236;DHT22;8734;59.272;17.780;2023-12-20T10:50:58;2.30;99.90
17236;DHT22;8734;59.272;17.780;2023-12-20T10:53:27;2.30;99.90
17236;DHT22;8734;59.272;17.780;2023-12-20T10:55:56;2.30;99.90
17236;DHT22;8734;59.272;17.780;2023-12-20T10:58:28;2.40;99.90
17236;DHT22;8734;59.272;17.780;2023-12-20T11:01:01;2.30;99.90
17236;DHT22;8734;59.272;17.780;2023-12-20T11:03:34;2.30;99.90
17236;DHT22;8734;59.272;17.780;2023-12-20T11:06:10;2.30;99.90
17236;DHT22;8734;59.272;17.780;2023-12-20T11:08:49;2.40;99.90
17236;DHT22;8734;59.272;17.780;2023-12-20T11:11:21;2.40;99.90
17236;DHT22;8734;59.272;17.780;2023-12-20T11:13:57;2.40;99.90
17236;DHT22;8734;59.272;17.780;2023-12-20T11:16:26;2.40;99.90
17236;DHT22;8734;59.272;17.780;2023-12-20T11:19:07;2.40;99.90
17236;DHT22;8734;59.272;17.780;2023-12-20T11:21:36;2.40;99.90
17236;DHT22;8734;59.272;17.780;2023-12-20T11:24:06;2.40;99.90
17236;DHT22;8734;59.272;17.780;2023-12-20T11:26:34;2.40;99.90
17236;DHT22;8734;59.272;17.780;2023-12-20T11:29:33;2.40;99.90
17236;DHT22;8734;59.272;17.780;2023-12-20T11:32:03;2.40;99.90
17236;DHT22;8734;59.272;17.780;2023-12-20T11:34:33;2.40;99.90
17236;DHT22;8734;59.272;17.780;2023-12-20T11:37:02;2.40;99.90
17236;DHT22;8734;59.272;17.780;2023-12-20T11:39:32;2.40;99.90
17236;DHT22;8734;59.272;17.780;2023-12-20T11:42:04;2.40;99.90
17236;DHT22;8734;59.272;17.780;2023-12-20T11:44:33;2.30;99.90
17236;DHT22;8734;59.272;17.780;2023-12-20T11:47:01;2.30;99.90
17236;DHT22;8734;59.272;17.780;2023-12-20T11:49:29;2.20;99.90
17236;DHT22;8734;59.272;17.780;2023-12-20T11:51:58;2.20;99.90
17236;DHT22;8734;59.272;17.780;2023-12-20T11:54:27;2.10;99.90
17236;DHT22;8734;59.272;17.780;2023-12-20T11:56:57;2.00;99.90
17236;DHT22;8734;59.272;17.780;2023-12-20T11:59:25;2.00;99.90
17236;DHT22;8734;59.272;17.780;2023-12-20T12:01:53;2.00;99.90
17236;DHT22;8734;59.272;17.780;2023-12-20T12:04:23;1.90;99.90
17236;DHT22;8734;59.272;17.780;2023-12-20T12:06:51;1.90;99.90
17236;DHT22;8734;59.272;17.780;2023-12-20T12:09:21;1.90;99.90
17236;DHT22;8734;59.272;17.780;2023-12-20T12:11:49;1.90;99.90
17236;DHT22;8734;59.272;17.780;2023-12-20T12:14:19;1.80;99.90
17236;DHT22;8734;59.272;17.780;2023-12-20T12:16:48;1.90;99.90
17236;DHT22;8734;59.272;17.780;2023-12-20T12:19:20;1.80;99.90
17236;DHT22;8734;59.272;17.780;2023-12-20T12:21:49;1.80;99.90
17236;DHT22;8734;59.272;17.780;2023-12-20T12:24:20;1.80;99.90
17236;DHT22;8734;59.272;17.780;2023-12-20T12:26:52;1.80;99.90
17236;DHT22;8734;59.272;17.780;2023-12-20T12:29:21;1.80;99.90
17236;DHT22;8734;59.272;17.780;2023-12-20T12:31:51;1.80;99.90
17236;DHT22;8734;59.272;17.780;2023-12-20T12:34:19;1.90;99.90
17236;DHT22;8734;59.272;17.780;2023-12-20T12:36:48;1.90;99.90
17236;DHT22;8734;59.272;17.780;2023-12-20T12:39:18;1.90;99.90
17236;DHT22;8734;59.272;17.780;2023-12-20T12:41:46;1.90;99.90
17236;DHT22;8734;59.272;17.780;2023-12-20T12:44:14;1.90;99.90
17236;DHT22;8734;59.272;17.780;2023-12-20T12:46:46;1.90;99.90
17236;DHT22;8734;59.272;17.780;2023-12-20T12:49:16;1.90;99.90
17236;DHT22;8734;59.272;17.780;2023-12-20T12:51:45;2.00;99.90
17236;DHT22;8734;59.272;17.780;2023-12-20T12:54:14;2.00;99.90
17236;DHT22;8734;59.272;17.780;2023-12-20T12:56:43;2.00;99.90
17236;DHT22;8734;59.272;17.780;2023-12-20T12:59:12;2.00;99.90
17236;DHT22;8734;59.272;17.780;2023-12-20T13:01:40;2.00;99.90
17236;DHT22;8734;59.272;17.780;2023-12-20T13:04:10;2.10;99.90
17236;DHT22;8734;59.272;17.780;2023-12-20T13:06:39;2.10;99.90
17236;DHT22;8734;59.272;17.780;2023-12-20T13:09:08;2.10;99.90
17236;DHT22;8734;59.272;17.780;2023-12-20T13:11:37;2.20;99.90
17236;DHT22;8734;59.272;17.780;2023-12-20T13:14:05;2.20;99.90
17236;DHT22;8734;59.272;17.780;2023-12-20T13:16:37;2.20;99.90
17236;DHT22;8734;59.272;17.780;2023-12-20T13:19:05;2.20;99.90
17236;DHT22;8734;59.272;17.780;2023-12-20T13:21:35;2.20;99.90
17236;DHT22;8734;59.272;17.780;2023-12-20T13:24:05;2.20;99.90
17236;DHT22;8734;59.272;17.780;2023-12-20T13:26:33;2.30;99.90
17236;DHT22;8734;59.272;17.780;2023-12-20T13:29:01;2.30;99.90
17236;DHT22;8734;59.272;17.780;2023-12-20T13:31:30;2.20;99.90
17236;DHT22;8734;59.272;17.780;2023-12-20T13:33:58;2.30;99.90
17236;DHT22;8734;59.272;17.780;2023-12-20T13:36:27;2.40;99.90
17236;DHT22;8734;59.272;17.780;2023-12-20T13:38:57;2.40;99.90
17236;DHT22;8734;59.272;17.780;2023-12-20T13:41:25;2.40;99.90
17236;DHT22;8734;59.272;17.780;2023-12-20T13:43:53;2.50;99.90
17236;DHT22;8734;59.272;17.780;2023-12-20T13:46:21;2.50;99.90
17236;DHT22;8734;59.272;17.780;2023-12-20T13:48:50;2.50;99.90
17236;DHT22;8734;59.272;17.780;2023-12-20T13:51:19;2.50;99.90
17236;DHT22;8734;59.272;17.780;2023-12-20T13:53:48;2.50;99.90
17236;DHT22;8734;59.272;17.780;2023-12-20T13:56:17;2.50;99.90
17236;DHT22;8734;59.272;17.780;2023-12-20T13:58:47;2.50;99.90
17236;DHT22;8734;59.272;17.780;2023-12-20T14:01:15;2.60;99.90
17236;DHT22;8734;59.272;17.780;2023-12-20T14:03:43;2.60;99.90
17236;DHT22;8734;59.272;17.780;2023-12-20T14:06:12;2.60;99.90
17236;DHT22;8734;59.272;17.780;2023-12-20T14:08:41;2.70;99.90
17236;DHT22;8734;59.272;17.780;2023-12-20T14:11:10;2.70;99.90
17236;DHT22;8734;59.272;17.780;2023-12-20T14:13:40;2.70;99.90
17236;DHT22;8734;59.272;17.780;2023-12-20T14:16:08;2.70;99.90
17236;DHT22;8734;59.272;17.780;2023-12-20T14:18:37;2.70;99.90
17236;DHT22;8734;59.272;17.780;2023-12-20T14:21:07;2.80;99.90
17236;DHT22;8734;59.272;17.780;2023-12-20T14:23:35;2.80;99.90
17236;DHT22;8734;59.272;17.780;2023-12-20T14:26:03;2.80;99.90
17236;DHT22;8734;59.272;17.780;2023-12-20T14:28:31;2.80;99.90
17236;DHT22;8734;59.272;17.780;2023-12-20T14:31:01;2.80;99.90
17236;DHT22;8734;59.272;17.780;2023-12-20T14:33:30;2.80;99.90
17236;DHT22;8734;59.272;17.780;2023-12-20T14:35:58;2.80;99.90
17236;DHT22;8734;59.272;17.780;2023-12-20T14:38:26;2.70;99.90
17236;DHT22;8734;59.272;17.780;2023-12-20T14:40:55;2.80;99.90
17236;DHT22;8734;59.272;17.780;2023-12-20T14:43:23;2.80;99.90
17236;DHT22;8734;59.272;17.780;2023-12-20T14:45:51;2.90;99.90
17236;DHT22;8734;59.272;17.780;2023-12-20T14:48:21;2.90;99.90
17236;DHT22;8734;59.272;17.780;2023-12-20T14:50:48;2.90;99.90
17236;DHT22;8734;59.272;17.780;2023-12-20T14:53:18;2.90;99.90
17236;DHT22;8734;59.272;17.780;2023-12-20T14:55:49;2.90;99.90
17236;DHT22;8734;59.272;17.780;2023-12-20T14:58:18;2.90;99.90
17236;DHT22;8734;59.272;17.780;2023-12-20T15:00:46;2.90;99.90
17236;DHT22;8734;59.272;17.780;2023-12-20T15:03:14;2.90;99.90
17236;DHT22;8734;59.272;17.780;2023-12-20T15:05:46;2.90;99.90
17236;DHT22;8734;59.272;17.780;2023-12-20T15:08:15;2.90;99.90
17236;DHT22;8734;59.272;17.780;2023-12-20T15:10:43;2.90;99.90
17236;DHT22;8734;59.272;17.780;2023-12-20T15:13:11;2.90;99.90
17236;DHT22;8734;59.272;17.780;2023-12-20T15:15:39;2.90;99.90
17236;DHT22;8734;59.272;17.780;2023-12-20T15:18:11;2.90;99.90
17236;DHT22;8734;59.272;17.780;2023-12-20T15:20:40;2.90;99.90
17236;DHT22;8734;59.272;17.780;2023-12-20T15:23:11;2.90;99.90
17236;DHT22;8734;59.272;17.780;2023-12-20T15:25:40;2.80;99.90
17236;DHT22;8734;59.272;17.780;2023-12-20T15:28:09;2.70;99.90
17236;DHT22;8734;59.272;17.780;2023-12-20T15:30:38;2.60;99.90
17236;DHT22;8734;59.272;17.780;2023-12-20T15:33:06;2.60;99.90
17236;DHT22;8734;59.272;17.780;2023-12-20T15:35:35;2.50;99.90
17236;DHT22;8734;59.272;17.780;2023-12-20T15:38:03;2.40;99.90
17236;DHT22;8734;59.272;17.780;2023-12-20T15:40:33;2.40;99.90
17236;DHT22;8734;59.272;17.780;2023-12-20T15:43:01;2.40;99.90
17236;DHT22;8734;59.272;17.780;2023-12-20T15:45:29;2.40;99.90
17236;DHT22;8734;59.272;17.780;2023-12-20T15:47:58;2.30;99.90
17236;DHT22;8734;59.272;17.780;2023-12-20T15:50:25;2.20;99.90
17236;DHT22;8734;59.272;17.780;2023-12-20T15:52:54;2.30;99.90
17236;DHT22;8734;59.272;17.780;2023-12-20T15:55:22;2.20;99.90
17236;DHT22;8734;59.272;17.780;2023-12-20T15:57:52;2.20;99.90